sensor_id;sensor_type;location;lat;lon;timestamp;P1;durP1;ratioP1;P2;durP2;ratioP2
40116;SDS011;25829;50.228;18.936;2024-03-17T00:02:10;3.60;;;2.50;;
40116;SDS011;25829;50.228;18.936;2024-03-17T00:05:11;2.57;;;2.33;;
40116;SDS011;25829;50.228;18.936;2024-03-17T00:08:12;2.97;;;2.30;;
40116;SDS011;25829;50.228;18.936;2024-03-17T00:11:12;3.90;;;2.53;;
40116;SDS011;25829;50.228;18.936;2024-03-17T00:14:13;5.23;;;2.93;;
40116;SDS011;25829;50.228;18.936;2024-03-17T00:17:17;3.70;;;2.63;;
40116;SDS011;25829;50.228;18.936;2024-03-17T00:24:33;3.20;;;2.20;;
40116;SDS011;25829;50.228;18.936;2024-03-17T00:27:35;4.10;;;2.37;;
40116;SDS011;25829;50.228;18.936;2024-03-17T00:30:40;2.90;;;2.27;;
40116;SDS011;25829;50.228;18.936;2024-03-17T00:33:41;4.23;;;2.50;;
40116;SDS011;25829;50.228;18.936;2024-03-17T00:36:42;3.20;;;2.53;;
40116;SDS011;25829;50.228;18.936;2024-03-17T00:39:43;4.10;;;2.60;;
40116;SDS011;25829;50.228;18.936;2024-03-17T00:42:44;5.40;;;2.73;;
40116;SDS011;25829;50.228;18.936;2024-03-17T00:45:51;6.00;;;2.87;;
40116;SDS011;25829;50.228;18.936;2024-03-17T00:48:52;3.67;;;2.43;;
40116;SDS011;25829;50.228;18.936;2024-03-17T00:51:53;4.63;;;2.70;;
40116;SDS011;25829;50.228;18.936;2024-03-17T00:59:23;2.83;;;2.63;;
40116;SDS011;25829;50.228;18.936;2024-03-17T01:02:24;4.63;;;3.03;;
40116;SDS011;25829;50.228;18.936;2024-03-17T01:05:25;3.90;;;3.20;;
40116;SDS011;25829;50.228;18.936;2024-03-17T01:08:26;4.23;;;3.03;;
40116;SDS011;25829;50.228;18.936;2024-03-17T01:11:26;4.77;;;3.20;;
40116;SDS011;25829;50.228;18.936;2024-03-17T01:14:28;6.40;;;3.37;;
40116;SDS011;25829;50.228;18.936;2024-03-17T01:17:38;4.57;;;3.73;;
40116;SDS011;25829;50.228;18.936;2024-03-17T01:20:39;5.93;;;3.63;;
40116;SDS011;25829;50.228;18.936;2024-03-17T01:23:39;5.70;;;3.20;;
40116;SDS011;25829;50.228;18.936;2024-03-17T01:26:40;6.87;;;3.40;;
40116;SDS011;25829;50.228;18.936;2024-03-17T01:29:41;7.03;;;3.07;;
40116;SDS011;25829;50.228;18.936;2024-03-17T01:32:45;4.97;;;2.90;;
40116;SDS011;25829;50.228;18.936;2024-03-17T01:35:46;4.73;;;2.83;;
40116;SDS011;25829;50.228;18.936;2024-03-17T01:38:47;3.33;;;2.80;;
40116;SDS011;25829;50.228;18.936;2024-03-17T01:41:51;4.50;;;3.70;;
40116;SDS011;25829;50.228;18.936;2024-03-17T01:44:52;5.03;;;3.10;;
40116;SDS011;25829;50.228;18.936;2024-03-17T01:47:53;4.53;;;2.43;;
40116;SDS011;25829;50.228;18.936;2024-03-17T01:50:58;4.60;;;2.90;;
40116;SDS011;25829;50.228;18.936;2024-03-17T01:53:58;7.10;;;2.73;;
40116;SDS011;25829;50.228;18.936;2024-03-17T01:57:05;4.43;;;2.90;;
40116;SDS011;25829;50.228;18.936;2024-03-17T02:00:06;4.07;;;2.50;;
40116;SDS011;25829;50.228;18.936;2024-03-17T02:03:09;3.70;;;2.50;;
40116;SDS011;25829;50.228;18.936;2024-03-17T02:06:09;4.70;;;2.70;;
40116;SDS011;25829;50.228;18.936;2024-03-17T02:09:10;5.47;;;2.27;;
40116;SDS011;25829;50.228;18.936;2024-03-17T02:12:11;5.20;;;3.40;;
40116;SDS011;25829;50.228;18.936;2024-03-17T02:15:12;4.70;;;2.47;;
40116;SDS011;25829;50.228;18.936;2024-03-17T02:18:14;4.67;;;3.07;;
40116;SDS011;25829;50.228;18.936;2024-03-17T02:21:15;3.97;;;3.00;;
40116;SDS011;25829;50.228;18.936;2024-03-17T02:24:16;3.87;;;3.07;;
40116;SDS011;25829;50.228;18.936;2024-03-17T02:27:19;4.87;;;2.73;;
40116;SDS011;25829;50.228;18.936;2024-03-17T02:30:26;6.73;;;3.63;;
40116;SDS011;25829;50.228;18.936;2024-03-17T02:33:27;3.73;;;2.63;;
40116;SDS011;25829;50.228;18.936;2024-03-17T02:36:28;4.47;;;3.10;;
40116;SDS011;25829;50.228;18.936;2024-03-17T02:39:29;5.63;;;3.07;;
40116;SDS011;25829;50.228;18.936;2024-03-17T02:42:36;5.90;;;3.10;;
40116;SDS011;25829;50.228;18.936;2024-03-17T02:45:43;5.63;;;3.03;;
40116;SDS011;25829;50.228;18.936;2024-03-17T02:48:55;4.30;;;2.67;;
40116;SDS011;25829;50.228;18.936;2024-03-17T02:52:08;6.50;;;3.10;;
40116;SDS011;25829;50.228;18.936;2024-03-17T02:55:10;6.50;;;2.93;;
40116;SDS011;25829;50.228;18.936;2024-03-17T02:58:11;6.37;;;3.10;;
40116;SDS011;25829;50.228;18.936;2024-03-17T03:01:20;7.00;;;3.50;;
40116;SDS011;25829;50.228;18.936;2024-03-17T03:04:21;5.93;;;3.13;;
40116;SDS011;25829;50.228;18.936;2024-03-17T03:07:22;6.23;;;2.90;;
40116;SDS011;25829;50.228;18.936;2024-03-17T03:10:23;4.33;;;3.17;;
40116;SDS011;25829;50.228;18.936;2024-03-17T03:13:24;6.07;;;3.03;;
40116;SDS011;25829;50.228;18.936;2024-03-17T03:16:27;6.20;;;3.00;;
40116;SDS011;25829;50.228;18.936;2024-03-17T03:19:28;5.43;;;2.90;;
40116;SDS011;25829;50.228;18.936;2024-03-17T03:22:30;6.00;;;3.07;;
40116;SDS011;25829;50.228;18.936;2024-03-17T03:25:31;4.30;;;3.03;;
40116;SDS011;25829;50.228;18.936;2024-03-17T03:28:32;6.07;;;2.87;;
40116;SDS011;25829;50.228;18.936;2024-03-17T03:31:45;4.60;;;2.70;;
40116;SDS011;25829;50.228;18.936;2024-03-17T03:34:45;4.40;;;2.80;;
40116;SDS011;25829;50.228;18.936;2024-03-17T03:37:49;6.67;;;3.13;;
40116;SDS011;25829;50.228;18.936;2024-03-17T03:41:05;3.63;;;2.50;;
40116;SDS011;25829;50.228;18.936;2024-03-17T03:44:16;5.07;;;2.73;;
40116;SDS011;25829;50.228;18.936;2024-03-17T03:47:18;3.37;;;2.60;;
40116;SDS011;25829;50.228;18.936;2024-03-17T03:50:20;5.70;;;2.63;;
40116;SDS011;25829;50.228;18.936;2024-03-17T03:53:22;3.40;;;2.50;;
40116;SDS011;25829;50.228;18.936;2024-03-17T03:56:23;4.73;;;2.63;;
40116;SDS011;25829;50.228;18.936;2024-03-17T03:59:24;4.10;;;2.40;;
40116;SDS011;25829;50.228;18.936;2024-03-17T04:02:25;4.87;;;2.33;;
40116;SDS011;25829;50.228;18.936;2024-03-17T04:05:31;4.80;;;2.50;;
40116;SDS011;25829;50.228;18.936;2024-03-17T04:08:33;4.03;;;2.63;;
40116;SDS011;25829;50.228;18.936;2024-03-17T04:11:37;4.87;;;2.30;;
40116;SDS011;25829;50.228;18.936;2024-03-17T04:14:38;6.30;;;2.73;;
40116;SDS011;25829;50.228;18.936;2024-03-17T04:17:39;4.27;;;2.80;;
40116;SDS011;25829;50.228;18.936;2024-03-17T04:20:40;7.40;;;2.27;;
40116;SDS011;25829;50.228;18.936;2024-03-17T04:23:44;3.73;;;2.17;;
40116;SDS011;25829;50.228;18.936;2024-03-17T04:26:44;5.77;;;2.97;;
40116;SDS011;25829;50.228;18.936;2024-03-17T04:29:46;5.73;;;2.50;;
40116;SDS011;25829;50.228;18.936;2024-03-17T04:32:50;5.50;;;2.40;;
40116;SDS011;25829;50.228;18.936;2024-03-17T04:35:52;4.53;;;2.17;;
40116;SDS011;25829;50.228;18.936;2024-03-17T04:38:53;3.80;;;2.67;;
40116;SDS011;25829;50.228;18.936;2024-03-17T04:41:57;4.87;;;2.47;;
40116;SDS011;25829;50.228;18.936;2024-03-17T04:45:09;4.80;;;2.77;;
40116;SDS011;25829;50.228;18.936;2024-03-17T04:48:28;4.07;;;2.20;;
40116;SDS011;25829;50.228;18.936;2024-03-17T04:51:29;6.13;;;2.60;;
40116;SDS011;25829;50.228;18.936;2024-03-17T04:54:33;4.97;;;2.50;;
40116;SDS011;25829;50.228;18.936;2024-03-17T04:57:34;5.47;;;2.63;;
40116;SDS011;25829;50.228;18.936;2024-03-17T05:00:36;3.23;;;2.37;;
40116;SDS011;25829;50.228;18.936;2024-03-17T05:03:37;5.10;;;2.83;;
40116;SDS011;25829;50.228;18.936;2024-03-17T05:06:38;4.87;;;3.17;;
40116;SDS011;25829;50.228;18.936;2024-03-17T05:09:39;5.13;;;2.70;;
40116;SDS011;25829;50.228;18.936;2024-03-17T05:12:39;5.63;;;3.00;;
40116;SDS011;25829;50.228;18.936;2024-03-17T05:15:40;5.57;;;3.20;;
40116;SDS011;25829;50.228;18.936;2024-03-17T05:18:41;5.33;;;3.07;;
40116;SDS011;25829;50.228;18.936;2024-03-17T05:21:52;4.73;;;3.13;;
40116;SDS011;25829;50.228;18.936;2024-03-17T05:24:52;5.03;;;3.00;;
40116;SDS011;25829;50.228;18.936;2024-03-17T05:27:56;6.23;;;3.33;;
40116;SDS011;25829;50.228;18.936;2024-03-17T05:30:59;4.90;;;3.40;;
40116;SDS011;25829;50.228;18.936;2024-03-17T05:34:00;9.47;;;3.43;;
40116;SDS011;25829;50.228;18.936;2024-03-17T05:37:01;7.27;;;3.00;;
40116;SDS011;25829;50.228;18.936;2024-03-17T05:40:02;6.40;;;3.17;;
40116;SDS011;25829;50.228;18.936;2024-03-17T05:43:14;5.70;;;2.80;;
40116;SDS011;25829;50.228;18.936;2024-03-17T05:46:15;8.10;;;3.33;;
40116;SDS011;25829;50.228;18.936;2024-03-17T05:49:16;7.83;;;3.00;;
40116;SDS011;25829;50.228;18.936;2024-03-17T05:52:17;8.17;;;3.20;;
40116;SDS011;25829;50.228;18.936;2024-03-17T05:55:17;4.33;;;2.40;;
40116;SDS011;25829;50.228;18.936;2024-03-17T05:58:18;7.30;;;2.70;;
40116;SDS011;25829;50.228;18.936;2024-03-17T06:01:19;7.70;;;3.17;;
40116;SDS011;25829;50.228;18.936;2024-03-17T06:04:20;5.37;;;2.83;;
40116;SDS011;25829;50.228;18.936;2024-03-17T06:07:20;8.83;;;2.87;;
40116;SDS011;25829;50.228;18.936;2024-03-17T06:10:21;4.40;;;3.07;;
40116;SDS011;25829;50.228;18.936;2024-03-17T06:13:25;5.13;;;2.77;;
40116;SDS011;25829;50.228;18.936;2024-03-17T06:16:30;5.03;;;3.03;;
40116;SDS011;25829;50.228;18.936;2024-03-17T06:19:31;5.23;;;2.83;;
40116;SDS011;25829;50.228;18.936;2024-03-17T06:22:31;4.93;;;2.93;;
40116;SDS011;25829;50.228;18.936;2024-03-17T06:29:05;6.70;;;2.60;;
40116;SDS011;25829;50.228;18.936;2024-03-17T06:32:06;6.17;;;2.83;;
40116;SDS011;25829;50.228;18.936;2024-03-17T06:35:08;9.60;;;3.03;;
40116;SDS011;25829;50.228;18.936;2024-03-17T06:38:09;2.87;;;2.60;;
40116;SDS011;25829;50.228;18.936;2024-03-17T06:41:10;6.40;;;3.00;;
40116;SDS011;25829;50.228;18.936;2024-03-17T06:44:18;7.90;;;2.40;;
40116;SDS011;25829;50.228;18.936;2024-03-17T06:47:19;8.63;;;2.90;;
40116;SDS011;25829;50.228;18.936;2024-03-17T06:50:20;3.10;;;2.20;;
40116;SDS011;25829;50.228;18.936;2024-03-17T06:53:21;6.47;;;2.53;;
40116;SDS011;25829;50.228;18.936;2024-03-17T06:56:22;7.20;;;2.70;;
40116;SDS011;25829;50.228;18.936;2024-03-17T06:59:28;5.77;;;2.20;;
40116;SDS011;25829;50.228;18.936;2024-03-17T07:02:33;7.60;;;2.73;;
40116;SDS011;25829;50.228;18.936;2024-03-17T07:05:34;5.40;;;2.70;;
40116;SDS011;25829;50.228;18.936;2024-03-17T07:08:45;5.87;;;3.30;;
40116;SDS011;25829;50.228;18.936;2024-03-17T07:11:46;6.37;;;2.80;;
40116;SDS011;25829;50.228;18.936;2024-03-17T07:14:49;4.90;;;2.20;;
40116;SDS011;25829;50.228;18.936;2024-03-17T07:17:52;7.67;;;2.40;;
40116;SDS011;25829;50.228;18.936;2024-03-17T07:20:52;8.10;;;2.67;;
40116;SDS011;25829;50.228;18.936;2024-03-17T07:24:02;8.37;;;2.30;;
40116;SDS011;25829;50.228;18.936;2024-03-17T07:27:07;6.97;;;2.87;;
40116;SDS011;25829;50.228;18.936;2024-03-17T07:30:13;5.80;;;2.50;;
40116;SDS011;25829;50.228;18.936;2024-03-17T07:33:14;7.10;;;2.70;;
40116;SDS011;25829;50.228;18.936;2024-03-17T07:36:25;5.33;;;2.80;;
40116;SDS011;25829;50.228;18.936;2024-03-17T07:39:28;4.57;;;2.07;;
40116;SDS011;25829;50.228;18.936;2024-03-17T07:42:40;5.93;;;2.57;;
40116;SDS011;25829;50.228;18.936;2024-03-17T07:45:42;8.50;;;2.77;;
40116;SDS011;25829;50.228;18.936;2024-03-17T07:48:46;3.87;;;2.33;;
40116;SDS011;25829;50.228;18.936;2024-03-17T07:51:56;5.23;;;2.43;;
40116;SDS011;25829;50.228;18.936;2024-03-17T07:55:00;4.87;;;2.30;;
40116;SDS011;25829;50.228;18.936;2024-03-17T07:58:05;6.67;;;2.30;;
40116;SDS011;25829;50.228;18.936;2024-03-17T08:01:18;5.77;;;2.13;;
40116;SDS011;25829;50.228;18.936;2024-03-17T08:04:21;3.93;;;1.93;;
40116;SDS011;25829;50.228;18.936;2024-03-17T08:07:22;6.00;;;2.27;;
40116;SDS011;25829;50.228;18.936;2024-03-17T08:10:23;5.53;;;2.90;;
40116;SDS011;25829;50.228;18.936;2024-03-17T08:13:24;3.07;;;1.93;;
40116;SDS011;25829;50.228;18.936;2024-03-17T08:16:24;5.27;;;2.23;;
40116;SDS011;25829;50.228;18.936;2024-03-17T08:19:31;4.00;;;2.37;;
40116;SDS011;25829;50.228;18.936;2024-03-17T08:22:35;4.00;;;2.70;;
40116;SDS011;25829;50.228;18.936;2024-03-17T08:25:36;5.80;;;2.57;;
40116;SDS011;25829;50.228;18.936;2024-03-17T08:28:39;4.23;;;2.50;;
40116;SDS011;25829;50.228;18.936;2024-03-17T08:31:40;3.23;;;2.13;;
40116;SDS011;25829;50.228;18.936;2024-03-17T08:34:45;3.30;;;2.00;;
40116;SDS011;25829;50.228;18.936;2024-03-17T08:37:49;4.57;;;2.40;;
40116;SDS011;25829;50.228;18.936;2024-03-17T08:40:52;3.43;;;1.93;;
40116;SDS011;25829;50.228;18.936;2024-03-17T08:43:56;6.13;;;2.77;;
40116;SDS011;25829;50.228;18.936;2024-03-17T08:46:57;3.80;;;2.63;;
40116;SDS011;25829;50.228;18.936;2024-03-17T08:50:05;6.37;;;2.70;;
40116;SDS011;25829;50.228;18.936;2024-03-17T08:53:08;5.00;;;2.00;;
40116;SDS011;25829;50.228;18.936;2024-03-17T08:59:32;4.70;;;2.70;;
40116;SDS011;25829;50.228;18.936;2024-03-17T09:02:33;4.73;;;1.67;;
40116;SDS011;25829;50.228;18.936;2024-03-17T09:05:43;3.57;;;2.30;;
40116;SDS011;25829;50.228;18.936;2024-03-17T09:08:46;4.37;;;2.20;;
40116;SDS011;25829;50.228;18.936;2024-03-17T09:11:46;4.30;;;2.40;;
40116;SDS011;25829;50.228;18.936;2024-03-17T09:18:13;7.27;;;2.90;;
40116;SDS011;25829;50.228;18.936;2024-03-17T09:21:17;6.77;;;2.53;;
40116;SDS011;25829;50.228;18.936;2024-03-17T09:24:22;6.47;;;2.20;;
40116;SDS011;25829;50.228;18.936;2024-03-17T09:27:23;4.33;;;2.27;;
40116;SDS011;25829;50.228;18.936;2024-03-17T09:30:46;4.30;;;1.90;;
40116;SDS011;25829;50.228;18.936;2024-03-17T09:37:02;4.83;;;1.87;;
40116;SDS011;25829;50.228;18.936;2024-03-17T09:40:15;3.63;;;1.97;;
40116;SDS011;25829;50.228;18.936;2024-03-17T09:43:19;8.07;;;2.03;;
40116;SDS011;25829;50.228;18.936;2024-03-17T09:46:27;2.97;;;2.03;;
40116;SDS011;25829;50.228;18.936;2024-03-17T09:49:35;2.77;;;1.70;;
40116;SDS011;25829;50.228;18.936;2024-03-17T09:52:35;2.23;;;1.60;;
40116;SDS011;25829;50.228;18.936;2024-03-17T09:55:36;2.73;;;1.80;;
40116;SDS011;25829;50.228;18.936;2024-03-17T09:58:38;5.03;;;1.87;;
40116;SDS011;25829;50.228;18.936;2024-03-17T10:01:39;3.57;;;1.67;;
40116;SDS011;25829;50.228;18.936;2024-03-17T10:04:39;2.83;;;1.53;;
40116;SDS011;25829;50.228;18.936;2024-03-17T10:07:43;3.20;;;1.77;;
40116;SDS011;25829;50.228;18.936;2024-03-17T10:10:44;5.43;;;2.00;;
40116;SDS011;25829;50.228;18.936;2024-03-17T10:13:45;3.40;;;1.77;;
40116;SDS011;25829;50.228;18.936;2024-03-17T10:16:47;5.43;;;2.03;;
40116;SDS011;25829;50.228;18.936;2024-03-17T10:19:48;5.43;;;2.07;;
40116;SDS011;25829;50.228;18.936;2024-03-17T10:23:05;4.70;;;2.10;;
40116;SDS011;25829;50.228;18.936;2024-03-17T10:26:15;3.20;;;1.57;;
40116;SDS011;25829;50.228;18.936;2024-03-17T10:29:26;5.83;;;1.97;;
40116;SDS011;25829;50.228;18.936;2024-03-17T10:32:37;2.73;;;1.77;;
40116;SDS011;25829;50.228;18.936;2024-03-17T10:35:38;2.10;;;1.67;;
40116;SDS011;25829;50.228;18.936;2024-03-17T10:38:40;3.47;;;1.93;;
40116;SDS011;25829;50.228;18.936;2024-03-17T10:41:53;4.10;;;1.73;;
40116;SDS011;25829;50.228;18.936;2024-03-17T10:44:57;4.07;;;1.97;;
40116;SDS011;25829;50.228;18.936;2024-03-17T10:47:59;3.73;;;1.80;;
40116;SDS011;25829;50.228;18.936;2024-03-17T10:51:00;2.53;;;1.90;;
40116;SDS011;25829;50.228;18.936;2024-03-17T10:54:03;7.40;;;2.10;;
40116;SDS011;25829;50.228;18.936;2024-03-17T10:57:24;5.30;;;1.83;;
40116;SDS011;25829;50.228;18.936;2024-03-17T11:00:32;2.20;;;1.80;;
40116;SDS011;25829;50.228;18.936;2024-03-17T11:03:35;2.63;;;1.60;;
40116;SDS011;25829;50.228;18.936;2024-03-17T11:06:36;2.97;;;1.87;;
40116;SDS011;25829;50.228;18.936;2024-03-17T11:09:36;3.73;;;1.60;;
40116;SDS011;25829;50.228;18.936;2024-03-17T11:12:41;2.00;;;1.80;;
40116;SDS011;25829;50.228;18.936;2024-03-17T11:15:52;5.50;;;2.17;;
40116;SDS011;25829;50.228;18.936;2024-03-17T11:19:05;2.90;;;2.13;;
40116;SDS011;25829;50.228;18.936;2024-03-17T11:25:42;4.70;;;2.00;;
40116;SDS011;25829;50.228;18.936;2024-03-17T11:28:52;2.77;;;1.90;;
40116;SDS011;25829;50.228;18.936;2024-03-17T11:31:53;2.87;;;2.00;;
40116;SDS011;25829;50.228;18.936;2024-03-17T11:35:12;3.53;;;1.87;;
40116;SDS011;25829;50.228;18.936;2024-03-17T11:41:52;3.50;;;2.10;;
40116;SDS011;25829;50.228;18.936;2024-03-17T11:44:54;4.67;;;2.07;;
40116;SDS011;25829;50.228;18.936;2024-03-17T11:47:56;4.83;;;1.87;;
40116;SDS011;25829;50.228;18.936;2024-03-17T11:50:58;1.93;;;1.70;;
40116;SDS011;25829;50.228;18.936;2024-03-17T11:53:59;2.17;;;1.67;;
40116;SDS011;25829;50.228;18.936;2024-03-17T11:57:01;3.23;;;1.60;;
40116;SDS011;25829;50.228;18.936;2024-03-17T12:00:03;5.27;;;2.37;;
40116;SDS011;25829;50.228;18.936;2024-03-17T12:03:04;3.97;;;2.10;;
40116;SDS011;25829;50.228;18.936;2024-03-17T12:06:14;3.40;;;1.70;;
40116;SDS011;25829;50.228;18.936;2024-03-17T12:09:22;3.60;;;1.70;;
40116;SDS011;25829;50.228;18.936;2024-03-17T12:12:25;3.80;;;1.93;;
40116;SDS011;25829;50.228;18.936;2024-03-17T12:15:36;5.07;;;2.00;;
40116;SDS011;25829;50.228;18.936;2024-03-17T12:18:37;4.50;;;2.00;;
40116;SDS011;25829;50.228;18.936;2024-03-17T12:21:42;5.93;;;1.90;;
40116;SDS011;25829;50.228;18.936;2024-03-17T12:24:44;2.13;;;1.40;;
40116;SDS011;25829;50.228;18.936;2024-03-17T12:27:46;4.37;;;2.27;;
40116;SDS011;25829;50.228;18.936;2024-03-17T12:30:54;4.73;;;1.80;;
40116;SDS011;25829;50.228;18.936;2024-03-17T12:33:59;5.13;;;2.00;;
40116;SDS011;25829;50.228;18.936;2024-03-17T12:37:00;3.67;;;2.23;;
40116;SDS011;25829;50.228;18.936;2024-03-17T12:40:01;3.80;;;1.80;;
40116;SDS011;25829;50.228;18.936;2024-03-17T12:43:03;5.30;;;2.23;;
40116;SDS011;25829;50.228;18.936;2024-03-17T12:46:07;2.97;;;1.60;;
40116;SDS011;25829;50.228;18.936;2024-03-17T12:49:14;3.40;;;1.60;;
40116;SDS011;25829;50.228;18.936;2024-03-17T12:52:21;3.33;;;1.80;;
40116;SDS011;25829;50.228;18.936;2024-03-17T12:55:32;4.37;;;1.70;;
40116;SDS011;25829;50.228;18.936;2024-03-17T12:58:51;3.90;;;1.77;;
40116;SDS011;25829;50.228;18.936;2024-03-17T13:02:30;3.07;;;1.90;;
40116;SDS011;25829;50.228;18.936;2024-03-17T13:05:32;5.77;;;2.17;;
40116;SDS011;25829;50.228;18.936;2024-03-17T13:08:33;3.50;;;2.13;;
40116;SDS011;25829;50.228;18.936;2024-03-17T13:11:34;4.70;;;2.10;;
40116;SDS011;25829;50.228;18.936;2024-03-17T13:14:35;4.03;;;1.90;;
40116;SDS011;25829;50.228;18.936;2024-03-17T13:17:36;3.10;;;1.97;;
40116;SDS011;25829;50.228;18.936;2024-03-17T13:20:37;5.17;;;2.20;;
40116;SDS011;25829;50.228;18.936;2024-03-17T13:23:38;5.53;;;1.97;;
40116;SDS011;25829;50.228;18.936;2024-03-17T13:26:39;5.70;;;1.70;;
40116;SDS011;25829;50.228;18.936;2024-03-17T13:29:40;4.63;;;1.97;;
40116;SDS011;25829;50.228;18.936;2024-03-17T13:32:44;4.63;;;2.13;;
40116;SDS011;25829;50.228;18.936;2024-03-17T13:35:48;3.23;;;1.90;;
40116;SDS011;25829;50.228;18.936;2024-03-17T13:38:52;3.50;;;2.20;;
40116;SDS011;25829;50.228;18.936;2024-03-17T13:41:53;4.50;;;2.20;;
40116;SDS011;25829;50.228;18.936;2024-03-17T13:44:56;3.97;;;1.83;;
40116;SDS011;25829;50.228;18.936;2024-03-17T13:47:58;3.47;;;2.13;;
40116;SDS011;25829;50.228;18.936;2024-03-17T13:51:01;2.63;;;1.90;;
40116;SDS011;25829;50.228;18.936;2024-03-17T13:54:02;5.00;;;2.07;;
40116;SDS011;25829;50.228;18.936;2024-03-17T13:57:03;2.63;;;2.00;;
40116;SDS011;25829;50.228;18.936;2024-03-17T14:00:05;4.30;;;2.03;;
40116;SDS011;25829;50.228;18.936;2024-03-17T14:03:12;4.80;;;2.00;;
40116;SDS011;25829;50.228;18.936;2024-03-17T14:06:13;2.80;;;2.00;;
40116;SDS011;25829;50.228;18.936;2024-03-17T14:09:17;4.40;;;2.30;;
40116;SDS011;25829;50.228;18.936;2024-03-17T14:12:22;4.67;;;2.30;;
40116;SDS011;25829;50.228;18.936;2024-03-17T14:15:29;2.90;;;2.00;;
40116;SDS011;25829;50.228;18.936;2024-03-17T14:18:33;4.00;;;1.80;;
40116;SDS011;25829;50.228;18.936;2024-03-17T14:21:40;2.63;;;2.13;;
40116;SDS011;25829;50.228;18.936;2024-03-17T14:24:50;2.70;;;2.10;;
40116;SDS011;25829;50.228;18.936;2024-03-17T14:27:51;4.47;;;2.10;;
40116;SDS011;25829;50.228;18.936;2024-03-17T14:30:52;5.17;;;2.67;;
40116;SDS011;25829;50.228;18.936;2024-03-17T14:33:53;3.10;;;1.90;;
40116;SDS011;25829;50.228;18.936;2024-03-17T14:36:54;3.67;;;2.53;;
40116;SDS011;25829;50.228;18.936;2024-03-17T14:39:55;2.40;;;2.20;;
40116;SDS011;25829;50.228;18.936;2024-03-17T14:42:56;5.57;;;2.10;;
40116;SDS011;25829;50.228;18.936;2024-03-17T14:45:58;4.47;;;1.93;;
40116;SDS011;25829;50.228;18.936;2024-03-17T14:49:00;3.73;;;2.37;;
40116;SDS011;25829;50.228;18.936;2024-03-17T14:52:01;5.83;;;2.37;;
40116;SDS011;25829;50.228;18.936;2024-03-17T14:55:03;3.40;;;2.23;;
40116;SDS011;25829;50.228;18.936;2024-03-17T14:58:04;4.60;;;2.50;;
40116;SDS011;25829;50.228;18.936;2024-03-17T15:01:07;3.77;;;2.50;;
40116;SDS011;25829;50.228;18.936;2024-03-17T15:04:09;3.80;;;2.03;;
40116;SDS011;25829;50.228;18.936;2024-03-17T15:07:10;2.47;;;2.03;;
40116;SDS011;25829;50.228;18.936;2024-03-17T15:10:11;5.77;;;2.20;;
40116;SDS011;25829;50.228;18.936;2024-03-17T15:13:16;8.40;;;2.40;;
40116;SDS011;25829;50.228;18.936;2024-03-17T15:16:17;4.70;;;2.40;;
40116;SDS011;25829;50.228;18.936;2024-03-17T15:19:18;5.50;;;2.23;;
40116;SDS011;25829;50.228;18.936;2024-03-17T15:22:19;4.87;;;2.50;;
40116;SDS011;25829;50.228;18.936;2024-03-17T15:25:21;4.73;;;2.03;;
40116;SDS011;25829;50.228;18.936;2024-03-17T15:28:24;6.63;;;2.17;;
40116;SDS011;25829;50.228;18.936;2024-03-17T15:31:28;3.60;;;1.83;;
40116;SDS011;25829;50.228;18.936;2024-03-17T15:34:29;5.60;;;1.83;;
40116;SDS011;25829;50.228;18.936;2024-03-17T15:37:31;3.80;;;1.83;;
40116;SDS011;25829;50.228;18.936;2024-03-17T15:40:32;4.93;;;2.00;;
40116;SDS011;25829;50.228;18.936;2024-03-17T15:43:35;4.70;;;2.87;;
40116;SDS011;25829;50.228;18.936;2024-03-17T15:46:40;2.67;;;2.07;;
40116;SDS011;25829;50.228;18.936;2024-03-17T15:49:41;4.13;;;2.10;;
40116;SDS011;25829;50.228;18.936;2024-03-17T15:52:42;4.97;;;2.57;;
40116;SDS011;25829;50.228;18.936;2024-03-17T15:55:43;4.10;;;2.30;;
40116;SDS011;25829;50.228;18.936;2024-03-17T15:58:43;6.03;;;2.17;;
40116;SDS011;25829;50.228;18.936;2024-03-17T16:01:44;5.20;;;2.53;;
40116;SDS011;25829;50.228;18.936;2024-03-17T16:04:45;3.70;;;2.17;;
40116;SDS011;25829;50.228;18.936;2024-03-17T16:07:47;3.67;;;2.30;;
40116;SDS011;25829;50.228;18.936;2024-03-17T16:10:52;4.20;;;2.10;;
40116;SDS011;25829;50.228;18.936;2024-03-17T16:13:59;6.67;;;4.13;;
40116;SDS011;25829;50.228;18.936;2024-03-17T16:17:02;4.37;;;2.63;;
40116;SDS011;25829;50.228;18.936;2024-03-17T16:24:15;6.53;;;2.70;;
40116;SDS011;25829;50.228;18.936;2024-03-17T16:27:21;4.30;;;2.67;;
40116;SDS011;25829;50.228;18.936;2024-03-17T16:30:25;5.00;;;2.93;;
40116;SDS011;25829;50.228;18.936;2024-03-17T16:33:27;6.90;;;3.67;;
40116;SDS011;25829;50.228;18.936;2024-03-17T16:36:28;7.40;;;3.63;;
40116;SDS011;25829;50.228;18.936;2024-03-17T16:39:33;8.37;;;3.40;;
40116;SDS011;25829;50.228;18.936;2024-03-17T16:42:36;7.30;;;3.50;;
40116;SDS011;25829;50.228;18.936;2024-03-17T16:45:37;8.70;;;4.00;;
40116;SDS011;25829;50.228;18.936;2024-03-17T16:48:45;5.27;;;3.77;;
40116;SDS011;25829;50.228;18.936;2024-03-17T16:51:52;8.33;;;4.10;;
40116;SDS011;25829;50.228;18.936;2024-03-17T16:54:53;8.87;;;4.40;;
40116;SDS011;25829;50.228;18.936;2024-03-17T16:57:55;11.03;;;4.53;;
40116;SDS011;25829;50.228;18.936;2024-03-17T17:00:55;9.33;;;3.93;;
40116;SDS011;25829;50.228;18.936;2024-03-17T17:04:02;9.23;;;3.87;;
40116;SDS011;25829;50.228;18.936;2024-03-17T17:07:23;10.47;;;4.30;;
40116;SDS011;25829;50.228;18.936;2024-03-17T17:10:23;6.90;;;3.30;;
40116;SDS011;25829;50.228;18.936;2024-03-17T17:13:24;8.30;;;4.00;;
40116;SDS011;25829;50.228;18.936;2024-03-17T17:16:25;7.43;;;4.13;;
40116;SDS011;25829;50.228;18.936;2024-03-17T17:19:29;9.50;;;3.80;;
40116;SDS011;25829;50.228;18.936;2024-03-17T17:22:30;8.03;;;4.27;;
40116;SDS011;25829;50.228;18.936;2024-03-17T17:25:31;9.60;;;4.17;;
40116;SDS011;25829;50.228;18.936;2024-03-17T17:28:31;9.73;;;4.63;;
40116;SDS011;25829;50.228;18.936;2024-03-17T17:31:32;7.57;;;4.60;;
40116;SDS011;25829;50.228;18.936;2024-03-17T17:34:36;8.43;;;4.33;;
40116;SDS011;25829;50.228;18.936;2024-03-17T17:37:38;8.33;;;3.60;;
40116;SDS011;25829;50.228;18.936;2024-03-17T17:40:38;6.23;;;3.30;;
40116;SDS011;25829;50.228;18.936;2024-03-17T17:43:43;6.87;;;3.30;;
40116;SDS011;25829;50.228;18.936;2024-03-17T17:46:45;5.03;;;2.70;;
40116;SDS011;25829;50.228;18.936;2024-03-17T17:49:46;6.30;;;3.30;;
40116;SDS011;25829;50.228;18.936;2024-03-17T17:52:47;8.07;;;3.73;;
40116;SDS011;25829;50.228;18.936;2024-03-17T17:55:57;9.67;;;3.80;;
40116;SDS011;25829;50.228;18.936;2024-03-17T17:58:57;8.47;;;3.60;;
40116;SDS011;25829;50.228;18.936;2024-03-17T18:01:59;7.33;;;3.83;;
40116;SDS011;25829;50.228;18.936;2024-03-17T18:05:00;6.47;;;3.30;;
40116;SDS011;25829;50.228;18.936;2024-03-17T18:08:02;5.83;;;3.03;;
40116;SDS011;25829;50.228;18.936;2024-03-17T18:11:03;6.87;;;3.40;;
40116;SDS011;25829;50.228;18.936;2024-03-17T18:14:04;5.87;;;2.53;;
40116;SDS011;25829;50.228;18.936;2024-03-17T18:17:05;8.50;;;3.70;;
40116;SDS011;25829;50.228;18.936;2024-03-17T18:20:06;6.30;;;3.50;;
40116;SDS011;25829;50.228;18.936;2024-03-17T18:23:13;6.17;;;3.00;;
40116;SDS011;25829;50.228;18.936;2024-03-17T18:26:13;5.00;;;3.20;;
40116;SDS011;25829;50.228;18.936;2024-03-17T18:29:32;6.60;;;3.60;;
40116;SDS011;25829;50.228;18.936;2024-03-17T18:32:35;7.87;;;3.40;;
40116;SDS011;25829;50.228;18.936;2024-03-17T18:35:48;7.87;;;3.20;;
40116;SDS011;25829;50.228;18.936;2024-03-17T18:38:50;4.93;;;3.20;;
40116;SDS011;25829;50.228;18.936;2024-03-17T18:41:53;6.33;;;3.03;;